Time;durP1;ratioP1;P1;durP2;ratioP2;P2;SDS_P1;SDS_P2;PMS_P1;PMS_P2;Temp;Humidity;BMP_temperature;BMP_pressure;BME280_temperature;BME280_humidity;BME280_pressure;Samples;Min_cycle;Max_cycle;Signal;HPM_P1;HPM_P2
2022/03/14 00:01:01;;;;;;;55.50;20.50;;;0.40;1.00;;;;;;4308010;28;652307;-89
2022/03/14 00:03:50;;;;;;;46.33;19.80;;;0.30;1.00;;;;;;4326519;28;652782;-89
2022/03/14 00:06:39;;;;;;;48.83;19.03;;;0.30;1.00;;;;;;4293303;28;654268;-90
2022/03/14 00:09:27;;;;;;;52.60;19.80;;;0.30;1.00;;;;;;4302519;28;653786;-90
2022/03/14 00:12:19;;;;;;;48.63;19.55;;;0.20;1.00;;;;;;4323293;28;653911;-90
2022/03/14 00:15:11;;;;;;;50.30;18.57;;;0.20;1.00;;;;;;4304701;28;653907;-89
2022/03/14 00:18:01;;;;;;;49.47;18.93;;;0.20;1.00;;;;;;4301054;28;654689;-90
2022/03/14 00:20:48;;;;;;;49.47;19.13;;;0.20;1.00;;;;;;4308022;28;653644;-90
2022/03/14 00:23:38;;;;;;;48.73;18.87;;;0.20;1.00;;;;;;4312179;28;653859;-89
2022/03/14 00:26:26;;;;;;;47.80;18.38;;;0.10;1.00;;;;;;4328357;28;653571;-90
2022/03/14 00:29:14;;;;;;;47.20;18.02;;;0.10;1.00;;;;;;4327396;28;653688;-90
2022/03/14 00:32:01;;;;;;;49.83;18.27;;;0.00;1.00;;;;;;4336277;28;653686;-89
2022/03/14 00:34:49;;;;;;;43.77;19.00;;;0.00;1.00;;;;;;4357109;28;653884;-89
2022/03/14 00:37:36;;;;;;;45.88;17.40;;;-0.10;1.00;;;;;;4331893;28;653509;-88
2022/03/14 00:40:26;;;;;;;43.73;17.93;;;-0.10;1.00;;;;;;4352799;28;654214;-89
2022/03/14 00:43:13;;;;;;;46.20;18.23;;;-0.10;1.00;;;;;;4330233;28;654880;-89
2022/03/14 00:46:01;;;;;;;44.17;17.73;;;-0.10;1.00;;;;;;4341986;28;654638;-88
2022/03/14 00:48:48;;;;;;;47.00;18.57;;;-0.20;1.00;;;;;;4351796;28;654989;-90
2022/03/14 00:51:36;;;;;;;53.15;19.60;;;-0.20;1.00;;;;;;4339841;28;654854;-89
2022/03/14 00:54:24;;;;;;;47.17;18.90;;;-0.20;1.00;;;;;;4357227;28;655019;-89
2022/03/14 00:57:13;;;;;;;56.75;20.48;;;-0.30;1.00;;;;;;4337451;28;654361;-89
2022/03/14 01:00:01;;;;;;;54.53;20.20;;;-0.40;1.00;;;;;;4340633;28;654923;-88
2022/03/14 01:02:50;;;;;;;54.77;18.73;;;-0.40;1.00;;;;;;4348572;28;654804;-89
2022/03/14 01:05:37;;;;;;;55.40;21.07;;;-0.50;1.00;;;;;;4330325;28;654315;-89
2022/03/14 01:08:25;;;;;;;60.70;21.40;;;-0.50;1.00;;;;;;4354260;28;654354;-89
2022/03/14 01:11:12;;;;;;;52.70;20.47;;;-0.50;1.00;;;;;;4331872;28;654393;-88
2022/03/14 01:14:02;;;;;;;55.93;21.03;;;-0.50;1.00;;;;;;4356991;28;653985;-89
2022/03/14 01:16:49;;;;;;;53.57;20.60;;;-0.60;1.00;;;;;;4335254;28;654501;-88
2022/03/14 01:19:38;;;;;;;58.90;21.58;;;-0.70;1.00;;;;;;4338289;28;654534;-88
2022/03/14 01:22:25;;;;;;;50.80;20.63;;;-0.70;1.00;;;;;;4350437;28;654379;-90
2022/03/14 01:25:13;;;;;;;58.47;21.23;;;-0.80;1.00;;;;;;4324020;28;654774;-90
2022/03/14 01:28:01;;;;;;;51.00;19.37;;;-0.80;1.00;;;;;;4358172;28;654095;-89
2022/03/14 01:30:50;;;;;;;53.67;20.27;;;-0.80;1.00;;;;;;4338014;28;654873;-90
2022/03/14 01:33:38;;;;;;;57.73;21.37;;;-0.80;1.00;;;;;;4323841;28;654459;-90
2022/03/14 01:36:25;;;;;;;54.53;21.55;;;-0.90;1.00;;;;;;4343305;28;654488;-91
2022/03/14 01:39:13;;;;;;;57.80;21.63;;;-0.90;1.00;;;;;;4337303;28;657349;-90
2022/03/14 01:42:00;;;;;;;49.63;19.93;;;-1.00;1.00;;;;;;4354116;28;654062;-89
2022/03/14 01:44:48;;;;;;;55.47;21.60;;;-1.00;1.00;;;;;;4327924;28;655274;-88
2022/03/14 01:47:38;;;;;;;51.40;20.70;;;-1.00;1.00;;;;;;4359121;28;653619;-90
2022/03/14 01:50:26;;;;;;;54.23;20.73;;;-1.00;1.00;;;;;;4319396;28;654220;-88
2022/03/14 01:53:13;;;;;;;53.57;21.17;;;-1.10;1.00;;;;;;4356178;28;655198;-88
2022/03/14 01:56:01;;;;;;;63.08;21.65;;;-1.10;1.00;;;;;;4334070;28;654587;-88
2022/03/14 01:58:49;;;;;;;54.83;20.97;;;-1.10;1.00;;;;;;4347509;28;654985;-87
2022/03/14 02:01:36;;;;;;;59.97;21.67;;;-1.20;1.00;;;;;;4328459;28;655620;-88
2022/03/14 02:04:25;;;;;;;58.10;20.37;;;-1.10;1.00;;;;;;4351589;28;656250;-88
2022/03/14 02:07:13;;;;;;;59.10;20.67;;;-1.10;36.80;;;;;;4343194;28;656368;-87
2022/03/14 02:10:01;;;;;;;55.67;20.10;;;-1.20;52.50;;;;;;4360927;28;656186;-88
2022/03/14 02:12:48;;;;;;;59.22;20.30;;;-1.20;73.80;;;;;;4337481;28;657359;-87
2022/03/14 02:15:36;;;;;;;55.70;21.30;;;-1.30;99.90;;;;;;4342478;28;656408;-87
2022/03/14 02:18:23;;;;;;;52.03;20.60;;;-1.30;99.90;;;;;;4361068;28;657372;-88
2022/03/14 02:21:13;;;;;;;51.08;20.25;;;-1.30;99.90;;;;;;4338104;28;656599;-87
2022/03/14 02:24:02;;;;;;;56.92;20.63;;;-1.40;99.90;;;;;;4334857;28;656921;-87
2022/03/14 02:26:49;;;;;;;46.87;19.60;;;-1.40;99.90;;;;;;4358729;28;656939;-87
2022/03/14 02:29:37;;;;;;;55.73;20.47;;;-1.40;99.90;;;;;;4334717;28;656814;-88
2022/03/14 02:32:25;;;;;;;58.33;20.83;;;-1.40;99.90;;;;;;4357700;28;656350;-88
2022/03/14 02:35:12;;;;;;;53.17;21.43;;;-1.40;99.90;;;;;;4340557;28;656322;-88
2022/03/14 02:38:01;;;;;;;57.10;20.80;;;-1.30;99.90;;;;;;4361191;28;656559;-88
2022/03/14 02:40:49;;;;;;;56.43;21.67;;;-1.40;99.90;;;;;;4330259;28;656782;-88
2022/03/14 02:43:36;;;;;;;60.43;20.83;;;-1.30;99.90;;;;;;4329285;28;656317;-88
2022/03/14 02:46:24;;;;;;;56.97;20.63;;;-1.30;99.90;;;;;;4348618;28;657181;-88
2022/03/14 02:49:12;;;;;;;51.53;20.63;;;-1.30;99.90;;;;;;4323692;28;657117;-88
2022/03/14 02:51:59;;;;;;;51.37;20.60;;;-1.40;99.90;;;;;;4352419;28;657545;-88
2022/03/14 02:54:48;;;;;;;56.93;20.87;;;-1.40;99.90;;;;;;4329682;28;656517;-88
2022/03/14 02:57:36;;;;;;;60.08;20.95;;;-1.40;99.90;;;;;;4335802;28;656659;-88
2022/03/14 03:00:24;;;;;;;56.37;21.23;;;-1.40;99.90;;;;;;4360296;28;656941;-88
2022/03/14 03:03:11;;;;;;;57.97;21.47;;;-1.40;99.90;;;;;;4340876;28;656539;-87
2022/03/14 03:05:59;;;;;;;61.63;23.17;;;-1.50;99.90;;;;;;4356106;28;656935;-88
2022/03/14 03:08:48;;;;;;;52.30;22.03;;;-1.50;99.90;;;;;;4335473;28;656545;-88
2022/03/14 03:11:37;;;;;;;63.10;23.88;;;-1.50;99.90;;;;;;4344490;28;656599;-88
2022/03/14 03:14:25;;;;;;;61.03;23.90;;;-1.50;99.90;;;;;;4363204;28;656631;-88
2022/03/14 03:17:12;;;;;;;69.53;24.50;;;-1.60;99.90;;;;;;4336087;28;656519;-87
2022/03/14 03:20:00;;;;;;;64.17;24.47;;;-1.60;99.90;;;;;;4360038;28;656009;-90
2022/03/14 03:22:47;;;;;;;59.97;23.80;;;-1.70;99.90;;;;;;4330000;28;656913;-89
2022/03/14 03:25:35;;;;;;;56.33;23.08;;;-1.70;99.90;;;;;;4353010;28;656286;-88
2022/03/14 03:28:24;;;;;;;61.23;24.10;;;-1.70;99.90;;;;;;4328297;28;656329;-88
2022/03/14 03:31:12;;;;;;;60.23;23.83;;;-1.70;99.90;;;;;;4330841;28;656626;-87
2022/03/14 03:34:00;;;;;;;58.70;22.97;;;-1.80;99.90;;;;;;4361953;28;656124;-89
2022/03/14 03:36:47;;;;;;;57.43;21.43;;;-1.80;99.90;;;;;;4333851;28;656871;-88
2022/03/14 03:39:35;;;;;;;58.53;21.20;;;-1.70;99.90;;;;;;4355720;28;656506;-88
2022/03/14 03:42:22;;;;;;;51.67;20.27;;;-1.80;99.90;;;;;;4327508;28;656700;-88
2022/03/14 03:45:13;;;;;;;52.33;20.27;;;-1.80;99.90;;;;;;4360846;28;655997;-88
2022/03/14 03:48:01;;;;;;;50.23;20.10;;;-1.70;99.90;;;;;;4343659;28;656605;-88
2022/03/14 03:50:49;;;;;;;49.97;18.97;;;-1.70;99.90;;;;;;4347956;28;657835;-90
2022/03/14 03:53:36;;;;;;;57.57;19.00;;;-1.70;99.90;;;;;;4337574;28;656658;-87
2022/03/14 03:56:24;;;;;;;51.72;20.30;;;-1.70;99.90;;;;;;4350147;28;657068;-87
2022/03/14 03:59:11;;;;;;;51.23;19.50;;;-1.70;99.90;;;;;;4340297;28;657041;-87
2022/03/14 04:02:02;;;;;;;48.20;18.13;;;-1.70;99.90;;;;;;4348346;28;656585;-87
2022/03/14 04:04:50;;;;;;;40.53;17.57;;;-1.60;99.90;;;;;;4328327;28;656282;-87
2022/03/14 04:07:40;;;;;;;45.10;18.00;;;-1.70;99.90;;;;;;4336540;28;656759;-88
2022/03/14 04:10:29;;;;;;;45.17;17.47;;;-1.70;99.90;;;;;;4332864;28;656735;-88
2022/03/14 04:13:18;;;;;;;43.43;17.40;;;-1.70;99.90;;;;;;4335082;28;656642;-87
2022/03/14 04:16:07;;;;;;;41.40;16.80;;;-1.80;99.90;;;;;;4347615;28;657216;-86
2022/03/14 04:18:55;;;;;;;45.25;17.08;;;-1.80;99.90;;;;;;4355201;28;657003;-87
2022/03/14 04:21:45;;;;;;;45.28;17.38;;;-1.80;99.90;;;;;;4337246;28;657331;-88
2022/03/14 04:24:37;;;;;;;43.97;16.77;;;-1.80;99.90;;;;;;4328379;28;656819;-87
2022/03/14 04:27:25;;;;;;;47.60;18.07;;;-1.80;99.90;;;;;;4327946;28;656279;-88
2022/03/14 04:30:13;;;;;;;46.30;18.65;;;-1.90;99.90;;;;;;4336123;28;656769;-87
2022/03/14 04:33:02;;;;;;;48.30;19.02;;;-1.90;99.90;;;;;;4332737;28;656327;-86
2022/03/14 04:35:51;;;;;;;54.95;20.77;;;-1.90;99.90;;;;;;4350152;28;656654;-87
2022/03/14 04:38:38;;;;;;;62.53;23.63;;;-2.00;99.90;;;;;;4327083;28;657301;-87
2022/03/14 04:41:26;;;;;;;66.80;25.07;;;-2.00;99.90;;;;;;4335505;28;657170;-87
2022/03/14 04:44:14;;;;;;;82.40;28.30;;;-2.10;99.90;;;;;;4356407;28;656934;-87
2022/03/14 04:47:01;;;;;;;84.50;30.90;;;-2.10;99.90;;;;;;4335466;28;656802;-86
2022/03/14 04:49:49;;;;;;;84.00;29.17;;;-2.10;99.90;;;;;;4355562;28;657041;-87
2022/03/14 04:52:38;;;;;;;77.10;26.47;;;-2.10;99.90;;;;;;4326614;28;656569;-87
2022/03/14 04:55:25;;;;;;;66.43;26.40;;;-2.20;99.90;;;;;;4363754;28;656418;-87
2022/03/14 04:58:14;;;;;;;78.10;26.07;;;-2.20;99.90;;;;;;4327131;28;656862;-87
2022/03/14 05:01:02;;;;;;;76.10;27.57;;;-2.20;99.90;;;;;;4331618;28;656550;-87
2022/03/14 05:03:49;;;;;;;61.17;24.33;;;-2.30;99.90;;;;;;4354537;28;657075;-87
2022/03/14 05:06:37;;;;;;;76.63;27.65;;;-2.30;99.90;;;;;;4334614;28;656852;-86
2022/03/14 05:09:27;;;;;;;83.80;30.07;;;-2.40;99.90;;;;;;4350286;28;656291;-86
2022/03/14 05:12:14;;;;;;;84.80;29.70;;;-2.40;99.90;;;;;;4337676;28;656723;-86
2022/03/14 05:15:02;;;;;;;72.43;27.07;;;-2.40;99.90;;;;;;4333880;28;656954;-87
2022/03/14 05:17:49;;;;;;;75.83;28.60;;;-2.40;99.90;;;;;;4331419;28;657468;-86
2022/03/14 05:20:37;;;;;;;76.87;28.80;;;-2.40;99.90;;;;;;4332004;28;656654;-86
2022/03/14 05:23:24;;;;;;;79.47;28.40;;;-2.40;99.90;;;;;;4349677;28;656338;-86
2022/03/14 05:26:13;;;;;;;75.63;25.67;;;-2.30;99.90;;;;;;4334082;28;657218;-86
2022/03/14 05:29:01;;;;;;;69.33;26.60;;;-2.30;99.90;;;;;;4333022;28;657065;-87
2022/03/14 05:31:49;;;;;;;77.67;27.47;;;-2.40;99.90;;;;;;4353439;28;657079;-86
2022/03/14 05:34:36;;;;;;;73.20;27.20;;;-2.40;99.90;;;;;;4332391;28;656734;-86
2022/03/14 05:37:24;;;;;;;87.67;31.33;;;-2.30;99.90;;;;;;4340838;28;656670;-86
2022/03/14 05:40:15;;;;;;;69.43;27.27;;;-2.30;99.90;;;;;;4332843;28;657175;-86
2022/03/14 05:43:08;;;;;;;72.80;28.10;;;-2.20;99.90;;;;;;4314547;28;657445;-87
2022/03/14 05:45:55;;;;;;;61.05;24.13;;;-2.20;99.90;;;;;;4328927;28;656767;-87
2022/03/14 05:48:43;;;;;;;73.27;27.20;;;-2.10;99.90;;;;;;4328705;28;656882;-91
2022/03/14 05:51:30;;;;;;;68.73;25.40;;;-2.00;99.90;;;;;;4349077;28;656465;-91
2022/03/14 05:54:18;;;;;;;64.03;24.87;;;-1.90;99.90;;;;;;4333510;28;656900;-91
2022/03/14 05:57:05;;;;;;;61.63;24.60;;;-1.70;99.90;;;;;;4356702;28;656838;-90
2022/03/14 05:59:54;;;;;;;64.13;22.90;;;-1.50;99.90;;;;;;4334949;28;656728;-89
2022/03/14 06:02:45;;;;;;;55.07;20.67;;;-1.30;99.90;;;;;;4330268;28;656608;-90
2022/03/14 06:05:33;;;;;;;53.92;21.50;;;-1.10;99.90;;;;;;4338644;28;657229;-90
2022/03/14 06:08:21;;;;;;;55.80;20.13;;;-0.90;99.90;;;;;;4401127;28;656627;-88
2022/03/14 06:11:09;;;;;;;58.03;21.50;;;-0.60;99.90;;;;;;4348236;28;657433;-91
2022/03/14 06:13:57;;;;;;;62.47;21.53;;;-0.40;24.90;;;;;;4328927;28;657022;-90
2022/03/14 06:16:46;;;;;;;45.50;19.52;;;-0.20;1.00;;;;;;4361637;28;657109;-89
2022/03/14 06:19:33;;;;;;;55.67;20.17;;;0.00;1.00;;;;;;4336850;28;655825;-90
2022/03/14 06:22:22;;;;;;;51.45;19.40;;;0.20;1.00;;;;;;4337871;28;654892;-90
2022/03/14 06:25:11;;;;;;;44.77;18.10;;;0.50;1.00;;;;;;4355110;28;654684;-90
2022/03/14 06:27:59;;;;;;;41.10;17.47;;;0.70;1.00;;;;;;4335643;28;654850;-92
2022/03/14 06:30:46;;;;;;;45.27;17.43;;;0.90;1.00;;;;;;4330047;28;654425;-90
2022/03/14 06:33:35;;;;;;;46.13;18.40;;;1.10;1.00;;;;;;4349050;28;654699;-91
2022/03/14 06:36:23;;;;;;;56.90;24.58;;;1.30;1.00;;;;;;4337030;28;655339;-90
2022/03/14 06:39:12;;;;;;;45.80;17.80;;;1.50;1.00;;;;;;4346857;28;654847;-89
2022/03/14 06:42:01;;;;;;;50.67;19.65;;;1.70;1.00;;;;;;4359534;28;655306;-90
2022/03/14 06:44:52;;;;;;;43.87;17.73;;;1.90;1.00;;;;;;4336920;28;655133;-90
2022/03/14 06:47:39;;;;;;;50.57;20.27;;;2.10;1.00;;;;;;4331748;28;654983;-91
2022/03/14 06:50:31;;;;;;;43.40;16.67;;;2.30;1.00;;;;;;4337210;28;654756;-90
2022/03/14 06:53:19;;;;;;;49.40;18.53;;;2.50;1.00;;;;;;4327835;28;654887;-91
2022/03/14 06:56:07;;;;;;;59.20;21.37;;;2.70;1.00;;;;;;4334257;28;654487;-90
2022/03/14 06:58:54;;;;;;;46.73;17.63;;;2.90;1.00;;;;;;4356451;28;654467;-90
2022/03/14 07:01:42;;;;;;;44.47;16.43;;;3.00;1.00;;;;;;4337724;28;654332;-91
2022/03/14 07:04:30;;;;;;;41.83;16.70;;;3.30;1.00;;;;;;4362585;28;655310;-90
2022/03/14 07:07:19;;;;;;;38.20;16.77;;;3.50;1.00;;;;;;4334428;28;655200;-90
2022/03/14 07:10:08;;;;;;;39.00;16.40;;;3.70;1.00;;;;;;4343344;28;654428;-89
2022/03/14 07:12:56;;;;;;;36.10;14.93;;;3.90;1.00;;;;;;4338908;28;654342;-89
2022/03/14 07:15:43;;;;;;;44.17;16.10;;;4.10;1.00;;;;;;4348980;28;654481;-90
2022/03/14 07:18:32;;;;;;;34.17;14.80;;;4.40;1.00;;;;;;4335235;28;654372;-89
2022/03/14 07:21:19;;;;;;;39.73;15.40;;;4.70;1.00;;;;;;4362421;28;654933;-90
2022/03/14 07:24:08;;;;;;;35.93;15.03;;;4.90;1.00;;;;;;4334983;28;654429;-90
2022/03/14 07:26:56;;;;;;;35.10;14.65;;;5.10;1.00;;;;;;4334650;28;654639;-89
2022/03/14 07:29:44;;;;;;;38.70;16.07;;;5.30;1.00;;;;;;4354006;28;654778;-91
2022/03/14 07:32:31;;;;;;;35.33;16.53;;;5.40;1.00;;;;;;4333783;28;654787;-90
2022/03/14 07:35:19;;;;;;;35.13;14.83;;;5.60;1.00;;;;;;4356162;28;654869;-90
2022/03/14 07:38:07;;;;;;;29.33;14.50;;;5.80;1.00;;;;;;4334375;28;654431;-90
2022/03/14 07:40:56;;;;;;;31.60;14.37;;;6.00;1.00;;;;;;4353053;28;654322;-91
2022/03/14 07:43:44;;;;;;;35.93;14.20;;;6.20;1.00;;;;;;4333986;28;655225;-91
2022/03/14 07:46:32;;;;;;;31.87;15.13;;;6.40;1.00;;;;;;4330179;28;654610;-91
2022/03/14 07:49:20;;;;;;;32.60;15.07;;;6.60;1.00;;;;;;4362796;28;655048;-92
2022/03/14 07:52:08;;;;;;;33.47;14.70;;;6.80;1.00;;;;;;4343712;28;654277;-93
2022/03/14 07:54:57;;;;;;;35.57;15.43;;;7.00;1.00;;;;;;4342335;28;654638;-91
2022/03/14 07:57:46;;;;;;;29.33;13.73;;;7.20;1.00;;;;;;4355709;28;654742;-92
2022/03/14 08:00:34;;;;;;;35.10;15.70;;;7.30;1.00;;;;;;4332386;28;655032;-91
2022/03/14 08:03:23;;;;;;;33.77;14.97;;;7.50;1.00;;;;;;4337512;28;654618;-91
2022/03/14 08:06:17;;;;;;;34.17;15.33;;;7.70;1.00;;;;;;4342680;28;654836;-90
2022/03/14 08:09:06;;;;;;;36.07;15.60;;;7.80;1.00;;;;;;4335505;28;655314;-91
2022/03/14 08:11:53;;;;;;;32.75;15.90;;;7.90;1.00;;;;;;4326903;28;654616;-91
2022/03/14 08:14:43;;;;;;;36.83;18.13;;;8.10;1.00;;;;;;4335029;28;654763;-90
2022/03/14 08:17:30;;;;;;;36.80;15.95;;;8.20;1.00;;;;;;4358744;28;654766;-91
2022/03/14 08:20:18;;;;;;;33.90;15.63;;;8.30;1.00;;;;;;4327076;28;655711;-90
2022/03/14 08:23:06;;;;;;;36.73;14.73;;;8.40;1.00;;;;;;4358120;28;654603;-90
2022/03/14 08:25:55;;;;;;;33.30;16.07;;;8.50;1.00;;;;;;4343311;28;654876;-90
2022/03/14 08:28:42;;;;;;;33.83;16.60;;;8.70;1.00;;;;;;4321200;28;654643;-90
2022/03/14 08:31:32;;;;;;;44.57;20.30;;;8.90;1.00;;;;;;4355837;28;654291;-91
2022/03/14 08:34:20;;;;;;;36.13;17.70;;;9.00;1.00;;;;;;4328480;28;655257;-91
2022/03/14 08:37:08;;;;;;;35.07;17.30;;;9.20;1.00;;;;;;4331574;28;654806;-91
2022/03/14 08:40:13;;;;;;;32.63;16.37;;;9.40;1.00;;;;;;4348523;28;655046;-92
2022/03/14 08:43:00;;;;;;;35.73;16.70;;;9.60;1.00;;;;;;4328902;28;654165;-91
2022/03/14 08:45:48;;;;;;;35.67;16.13;;;9.80;1.00;;;;;;4328945;28;654675;-91
2022/03/14 08:48:38;;;;;;;33.37;16.90;;;10.10;1.00;;;;;;4340476;28;654727;-91
2022/03/14 08:51:25;;;;;;;35.13;17.50;;;10.10;1.00;;;;;;4358278;28;655402;-93
2022/03/14 08:54:13;;;;;;;36.77;17.03;;;10.20;1.00;;;;;;4331666;28;656096;-92
2022/03/14 08:57:01;;;;;;;33.87;16.60;;;10.40;1.00;;;;;;4349721;28;655303;-93
2022/03/14 08:59:48;;;;;;;34.20;17.00;;;10.50;1.00;;;;;;4330391;28;655971;-92
2022/03/14 09:02:36;;;;;;;29.33;15.73;;;10.90;1.00;;;;;;4323944;28;655708;-91
2022/03/14 09:05:26;;;;;;;28.57;14.83;;;11.20;1.00;;;;;;4349032;28;656051;-92
2022/03/14 09:08:13;;;;;;;31.23;14.75;;;11.40;1.00;;;;;;4322836;28;656481;-91
2022/03/14 09:11:01;;;;;;;36.07;16.13;;;11.70;1.00;;;;;;4336507;28;655478;-91
2022/03/14 09:13:49;;;;;;;35.37;17.40;;;11.80;1.00;;;;;;4335492;28;655531;-93
2022/03/14 09:16:36;;;;;;;28.43;14.30;;;11.80;1.00;;;;;;4332727;28;655277;-93
2022/03/14 09:19:25;;;;;;;28.10;14.13;;;12.00;1.00;;;;;;4355108;28;656065;-91
2022/03/14 09:22:18;;;;;;;32.90;16.13;;;12.00;1.00;;;;;;4334987;28;655493;-91
2022/03/14 09:25:07;;;;;;;32.03;16.67;;;12.00;1.00;;;;;;4315010;28;655783;-91
2022/03/14 09:27:54;;;;;;;27.95;14.23;;;12.20;1.00;;;;;;4348883;28;656568;-91
2022/03/14 09:30:43;;;;;;;27.67;14.70;;;12.40;1.00;;;;;;4326766;28;656407;-90
2022/03/14 09:33:31;;;;;;;28.80;14.20;;;12.60;1.00;;;;;;4331652;28;655310;-90
2022/03/14 09:36:19;;;;;;;24.60;13.37;;;12.80;1.00;;;;;;4345569;28;655777;-90
2022/03/14 09:39:08;;;;;;;29.93;14.23;;;12.80;1.00;;;;;;4329588;28;655747;-90
2022/03/14 09:41:56;;;;;;;28.30;14.50;;;13.10;1.00;;;;;;4342155;28;655641;-90
2022/03/14 09:44:44;;;;;;;30.97;15.20;;;13.30;1.00;;;;;;4347564;28;655551;-90
2022/03/14 09:47:32;;;;;;;30.40;14.73;;;13.30;1.00;;;;;;4337066;28;655860;-90
2022/03/14 09:50:22;;;;;;;31.33;15.80;;;13.50;1.00;;;;;;4357517;28;655420;-89
2022/03/14 09:53:11;;;;;;;37.20;15.60;;;13.60;1.00;;;;;;4330831;28;655534;-90
2022/03/14 09:56:00;;;;;;;26.60;13.57;;;13.70;1.00;;;;;;4327217;28;655942;-90
2022/03/14 09:58:47;;;;;;;35.67;15.67;;;13.80;1.00;;;;;;4335544;28;655720;-90
2022/03/14 10:01:35;;;;;;;38.47;16.17;;;14.10;1.00;;;;;;4356029;28;655611;-89
2022/03/14 10:04:23;;;;;;;33.20;16.47;;;14.40;1.00;;;;;;4327955;28;655634;-90
2022/03/14 10:07:11;;;;;;;32.20;14.83;;;14.30;1.00;;;;;;4323650;28;655773;-89
2022/03/14 10:09:59;;;;;;;32.63;16.27;;;14.20;1.00;;;;;;4348158;28;655801;-90
2022/03/14 10:12:52;;;;;;;29.33;14.53;;;14.20;1.00;;;;;;4329923;28;655580;-90
2022/03/14 10:15:40;;;;;;;26.87;13.33;;;14.60;1.00;;;;;;4331395;28;655121;-90
2022/03/14 10:18:28;;;;;;;25.50;12.70;;;14.80;1.00;;;;;;4328091;28;656670;-90
2022/03/14 10:21:17;;;;;;;25.60;13.23;;;15.00;1.00;;;;;;4347220;28;655356;-90
2022/03/14 10:24:06;;;;;;;24.93;13.13;;;15.10;1.00;;;;;;4358374;28;655311;-90
2022/03/14 10:26:54;;;;;;;28.50;14.20;;;15.10;1.00;;;;;;4335893;28;655544;-90
2022/03/14 10:29:46;;;;;;;26.57;14.40;;;15.20;1.00;;;;;;4335771;28;655928;-90
2022/03/14 10:32:37;;;;;;;29.63;14.67;;;15.20;1.00;;;;;;4331499;28;656796;-90
2022/03/14 10:35:27;;;;;;;30.23;13.70;;;15.50;1.00;;;;;;4340594;28;655676;-89
2022/03/14 10:38:16;;;;;;;27.57;14.50;;;15.80;1.00;;;;;;4334783;28;655309;-90
2022/03/14 10:41:08;;;;;;;31.27;13.57;;;16.00;1.00;;;;;;4325507;28;655931;-90
2022/03/14 10:43:55;;;;;;;28.87;13.33;;;16.20;1.00;;;;;;4335193;28;655686;-90
2022/03/14 10:46:45;;;;;;;28.50;12.93;;;16.20;1.00;;;;;;4334020;28;656004;-90
2022/03/14 10:49:34;;;;;;;23.77;11.20;;;16.30;1.00;;;;;;4332631;28;656135;-90
2022/03/14 10:52:22;;;;;;;28.20;13.33;;;16.60;1.00;;;;;;4337254;28;655691;-90
2022/03/14 10:55:14;;;;;;;21.37;11.40;;;16.50;1.00;;;;;;4353179;28;655945;-90
2022/03/14 10:58:11;;;;;;;25.87;12.83;;;16.90;1.00;;;;;;4328643;28;655789;-89
2022/03/14 11:01:00;;;;;;;24.57;13.20;;;16.90;1.00;;;;;;4331099;28;655971;-90
2022/03/14 11:03:49;;;;;;;24.23;11.80;;;17.40;1.00;;;;;;4331270;28;656180;-90
2022/03/14 11:06:37;;;;;;;20.20;11.70;;;17.30;1.00;;;;;;4333770;28;655512;-90
2022/03/14 11:09:37;;;;;;;30.83;11.53;;;17.30;1.00;;;;;;4355568;28;656103;-90
2022/03/14 11:12:25;;;;;;;12.10;5.90;;;17.20;1.00;;;;;;4336204;28;655806;-90
2022/03/14 11:15:13;;;;;;;9.70;5.60;;;17.10;1.00;;;;;;4331206;28;655085;-90
2022/03/14 11:18:01;;;;;;;10.97;5.10;;;17.00;1.00;;;;;;4341338;28;653320;-89
2022/03/14 11:20:50;;;;;;;10.37;5.60;;;16.90;1.00;;;;;;4356098;28;655251;-90
2022/03/14 11:23:38;;;;;;;10.57;5.90;;;16.70;1.00;;;;;;4331497;28;654821;-90
2022/03/14 11:26:27;;;;;;;9.33;5.77;;;16.20;1.00;;;;;;4358940;28;654212;-89
2022/03/14 11:29:15;;;;;;;12.03;5.43;;;16.20;1.00;;;;;;4329104;28;653629;-90
2022/03/14 11:32:04;;;;;;;10.93;5.23;;;16.60;1.00;;;;;;4319259;28;654533;-90
2022/03/14 11:34:51;;;;;;;10.13;5.63;;;16.50;1.00;;;;;;4320489;28;654468;-89
2022/03/14 11:37:42;;;;;;;13.87;5.87;;;16.70;1.00;;;;;;4343282;28;654523;-90
2022/03/14 11:40:30;;;;;;;15.10;6.30;;;16.60;1.00;;;;;;4320921;28;654410;-90
2022/03/14 11:43:18;;;;;;;13.43;5.53;;;16.60;1.00;;;;;;4322519;28;654636;-90
2022/03/14 11:46:06;;;;;;;10.67;5.80;;;16.60;1.00;;;;;;4320779;28;654623;-90
2022/03/14 11:48:53;;;;;;;11.77;6.50;;;16.20;1.00;;;;;;4337446;28;655372;-90
2022/03/14 11:51:41;;;;;;;12.47;6.10;;;16.20;1.00;;;;;;4300222;28;654597;-89
2022/03/14 11:54:36;;;;;;;12.13;6.17;;;16.10;1.00;;;;;;4333417;28;654135;-90
2022/03/14 11:57:36;;;;;;;10.27;6.17;;;16.30;1.00;;;;;;4314878;28;654708;-90
2022/03/14 12:00:35;;;;;;;12.40;6.70;;;16.90;1.00;;;;;;4317541;28;654241;-90
2022/03/14 12:03:37;;;;;;;13.47;7.07;;;17.30;1.00;;;;;;4316307;28;654999;-90
2022/03/14 12:06:58;;;;;;;10.17;6.10;;;17.90;1.00;;;;;;4319817;28;655245;-90
2022/03/14 12:09:51;;;;;;;12.17;6.70;;;18.20;1.00;;;;;;4323795;28;654480;-90
2022/03/14 12:12:39;;;;;;;12.33;7.03;;;18.00;1.00;;;;;;4323268;28;654835;-90
2022/03/14 12:15:38;;;;;;;13.43;7.27;;;18.50;1.00;;;;;;4319176;28;654503;-90
2022/03/14 12:18:38;;;;;;;12.60;7.07;;;18.70;1.00;;;;;;4298363;28;654480;-91
2022/03/14 12:21:45;;;;;;;12.50;7.37;;;18.70;1.00;;;;;;4327845;28;655108;-90
2022/03/14 12:24:49;;;;;;;15.03;8.40;;;18.80;1.00;;;;;;4311832;28;654346;-93
2022/03/14 12:27:37;;;;;;;16.90;8.00;;;19.20;1.00;;;;;;4317328;28;654937;-91
2022/03/14 12:30:31;;;;;;;15.17;7.80;;;19.10;1.00;;;;;;4339004;28;654571;-90
2022/03/14 12:33:31;;;;;;;17.60;8.10;;;19.30;1.00;;;;;;4315340;28;654572;-92
2022/03/14 12:36:43;;;;;;;14.77;7.90;;;18.90;1.00;;;;;;4312807;28;654799;-91
2022/03/14 12:39:36;;;;;;;15.40;8.27;;;18.80;1.00;;;;;;4299445;28;654425;-91
2022/03/14 12:42:26;;;;;;;14.87;7.93;;;19.10;1.00;;;;;;4309013;28;654596;-91
2022/03/14 12:45:24;;;;;;;15.07;7.83;;;18.80;1.00;;;;;;4319601;28;655357;-90
2022/03/14 12:48:16;;;;;;;15.80;7.20;;;19.00;1.00;;;;;;4320011;28;654749;-89
2022/03/14 12:51:06;;;;;;;14.63;7.53;;;18.20;1.00;;;;;;4325210;28;655603;-90
2022/03/14 12:53:54;;;;;;;13.20;7.23;;;17.80;1.00;;;;;;4317169;28;655976;-90
2022/03/14 12:56:41;;;;;;;15.30;7.03;;;17.80;1.00;;;;;;4319105;28;654815;-90
2022/03/14 12:59:31;;;;;;;13.50;7.20;;;17.80;1.00;;;;;;4322979;28;655518;-91
2022/03/14 13:02:25;;;;;;;15.70;7.37;;;17.50;1.00;;;;;;4314229;28;654667;-91
2022/03/14 13:05:13;;;;;;;17.17;7.73;;;17.50;1.00;;;;;;4312396;28;655143;-90
2022/03/14 13:08:02;;;;;;;16.97;7.80;;;17.60;1.00;;;;;;4326738;28;654721;-88
2022/03/14 13:10:51;;;;;;;17.20;8.53;;;17.90;1.00;;;;;;4344330;28;654564;-91
2022/03/14 13:13:39;;;;;;;17.07;8.90;;;18.20;1.00;;;;;;4311379;28;655300;-91
2022/03/14 13:16:29;;;;;;;15.33;8.60;;;18.60;1.00;;;;;;4318744;28;654509;-91
2022/03/14 13:19:18;;;;;;;16.40;8.37;;;18.50;1.00;;;;;;4313188;28;654361;-91
2022/03/14 13:22:12;;;;;;;20.97;9.33;;;18.70;1.00;;;;;;4316139;28;654464;-90
2022/03/14 13:24:59;;;;;;;24.00;9.97;;;19.10;1.00;;;;;;4321694;28;654363;-91
2022/03/14 13:27:53;;;;;;;18.47;8.50;;;19.20;1.00;;;;;;4318788;28;655872;-90
2022/03/14 13:30:42;;;;;;;18.40;8.77;;;19.70;1.00;;;;;;4339738;28;654140;-91
2022/03/14 13:33:33;;;;;;;17.90;9.17;;;19.70;1.00;;;;;;4341591;28;654140;-89
2022/03/14 13:36:21;;;;;;;18.03;9.43;;;19.90;1.00;;;;;;4311421;28;654732;-90
2022/03/14 13:39:09;;;;;;;18.67;9.03;;;20.10;1.00;;;;;;4318278;28;654470;-91
2022/03/14 13:41:58;;;;;;;14.07;8.30;;;20.30;1.00;;;;;;4316660;28;654497;-90
2022/03/14 13:44:45;;;;;;;13.53;6.77;;;20.30;1.00;;;;;;4343985;28;654170;-91
2022/03/14 13:47:33;;;;;;;11.73;6.30;;;20.30;1.00;;;;;;4314495;28;655803;-90
2022/03/14 13:50:23;;;;;;;11.47;6.37;;;20.20;1.00;;;;;;4337855;28;654642;-90
2022/03/14 13:53:21;;;;;;;13.57;6.73;;;19.20;1.00;;;;;;4316958;28;654235;-92
2022/03/14 13:56:09;;;;;;;14.30;7.03;;;18.40;1.00;;;;;;4316053;28;655135;-95
2022/03/14 13:58:57;;;;;;;13.63;6.97;;;17.90;1.00;;;;;;4314181;28;654455;-94
2022/03/14 14:01:46;;;;;;;18.07;7.40;;;17.80;1.00;;;;;;4298673;28;655136;-94
2022/03/14 14:04:34;;;;;;;12.90;5.63;;;18.10;1.00;;;;;;4320870;28;655517;-92
2022/03/14 14:07:24;;;;;;;12.50;6.33;;;18.60;1.00;;;;;;4327235;28;654762;-90
2022/03/14 14:10:12;;;;;;;17.37;7.20;;;19.40;1.00;;;;;;4324719;28;654683;-89
2022/03/14 14:13:01;;;;;;;11.57;6.97;;;20.30;1.00;;;;;;4338520;28;654642;-90
2022/03/14 14:15:50;;;;;;;11.27;6.50;;;21.40;1.00;;;;;;4320026;28;655391;-91
2022/03/14 14:18:37;;;;;;;14.97;7.17;;;21.50;1.00;;;;;;4326102;28;654461;-93